KLOU/LOU METAR and TAF weather

Enter ICAO airport designator
Station Type Date Time Source
KLOU METAR 2021/07/30 07:40 UTC NOAA

KLOU 300740Z AUTO 32004KT 10SM SCT019 BKN026 OVC045 27/27 A2996 RMK AO2 T02670267


Station Type Date Time Source
KLOU Decoded METAR 2021/07/30 07:40 UTC NOAA

BOWMAN FIELD, KY, United States (KLOU) 38-14N 085-40W 164M
Jul 30, 2021 - 03:40 AM EDT / 2021.07.30 0740 UTC
Wind: from the NW (320 degrees) at 5 MPH (4 KT):0
Visibility: 10 mile(s):0
Sky conditions: overcast
Temperature: 80.1 F (26.7 C)
Dew Point: 80.1 F (26.7 C)
Relative Humidity: 100%
Pressure (altimeter): 29.96 in. Hg (1014 hPa)
ob: KLOU 300740Z AUTO 32004KT 10SM SCT019 BKN026 OVC045 27/27 A2996 RMK AO2 T02670267
cycle: 7

Station Type Date Time Source
KLOU TAF UTC NOAA

Error!

Example: see airport list